sensor_id;sensor_type;location;lat;lon;timestamp;temperature;humidity
69208;SHT31;70114;47.690;8.898;2024-03-06T00:01:29;6.81;84.76
69208;SHT31;70114;47.690;8.898;2024-03-06T00:03:55;6.75;84.33
69208;SHT31;70114;47.690;8.898;2024-03-06T00:06:20;6.71;84.64
69208;SHT31;70114;47.690;8.898;2024-03-06T00:08:45;6.64;85.02
69208;SHT31;70114;47.690;8.898;2024-03-06T00:11:11;6.52;85.16
69208;SHT31;70114;47.690;8.898;2024-03-06T00:13:36;6.49;85.53
69208;SHT31;70114;47.690;8.898;2024-03-06T00:16:01;6.61;85.25
69208;SHT31;70114;47.690;8.898;2024-03-06T00:18:27;6.45;85.77
69208;SHT31;70114;47.690;8.898;2024-03-06T00:20:53;6.51;85.87
69208;SHT31;70114;47.690;8.898;2024-03-06T00:23:19;6.56;85.81
69208;SHT31;70114;47.690;8.898;2024-03-06T00:25:44;6.41;86.04
69208;SHT31;70114;47.690;8.898;2024-03-06T00:28:10;6.52;85.93
69208;SHT31;70114;47.690;8.898;2024-03-06T00:30:35;6.56;85.53
69208;SHT31;70114;47.690;8.898;2024-03-06T00:33:01;6.21;86.68
69208;SHT31;70114;47.690;8.898;2024-03-06T00:35:26;6.42;86.14
69208;SHT31;70114;47.690;8.898;2024-03-06T00:37:52;6.45;86.34
69208;SHT31;70114;47.690;8.898;2024-03-06T00:40:18;6.40;86.31
69208;SHT31;70114;47.690;8.898;2024-03-06T00:42:43;6.44;86.19
69208;SHT31;70114;47.690;8.898;2024-03-06T00:45:09;6.46;86.12
69208;SHT31;70114;47.690;8.898;2024-03-06T00:47:35;6.45;85.70
69208;SHT31;70114;47.690;8.898;2024-03-06T00:50:00;6.35;85.58
69208;SHT31;70114;47.690;8.898;2024-03-06T00:52:26;6.18;85.93
69208;SHT31;70114;47.690;8.898;2024-03-06T00:54:52;6.16;86.11
69208;SHT31;70114;47.690;8.898;2024-03-06T00:57:17;6.10;86.18
69208;SHT31;70114;47.690;8.898;2024-03-06T00:59:43;6.03;86.43
69208;SHT31;70114;47.690;8.898;2024-03-06T01:02:08;5.97;86.46
69208;SHT31;70114;47.690;8.898;2024-03-06T01:04:34;5.80;86.41
69208;SHT31;70114;47.690;8.898;2024-03-06T01:06:59;5.79;87.06
69208;SHT31;70114;47.690;8.898;2024-03-06T01:09:24;5.73;87.21
69208;SHT31;70114;47.690;8.898;2024-03-06T01:11:50;5.86;86.77
69208;SHT31;70114;47.690;8.898;2024-03-06T01:14:16;5.92;86.73
69208;SHT31;70114;47.690;8.898;2024-03-06T01:16:41;5.92;86.72
69208;SHT31;70114;47.690;8.898;2024-03-06T01:19:07;5.99;86.57
69208;SHT31;70114;47.690;8.898;2024-03-06T01:21:32;6.13;86.22
69208;SHT31;70114;47.690;8.898;2024-03-06T01:24:00;6.07;86.05
69208;SHT31;70114;47.690;8.898;2024-03-06T01:26:26;6.06;86.08
69208;SHT31;70114;47.690;8.898;2024-03-06T01:28:51;6.11;85.72
69208;SHT31;70114;47.690;8.898;2024-03-06T01:31:17;6.04;85.76
69208;SHT31;70114;47.690;8.898;2024-03-06T01:33:42;5.99;86.10
69208;SHT31;70114;47.690;8.898;2024-03-06T01:36:08;6.06;85.80
69208;SHT31;70114;47.690;8.898;2024-03-06T01:38:33;6.00;86.00
69208;SHT31;70114;47.690;8.898;2024-03-06T01:40:58;6.11;85.70
69208;SHT31;70114;47.690;8.898;2024-03-06T01:43:25;6.10;85.86
69208;SHT31;70114;47.690;8.898;2024-03-06T01:45:52;6.17;85.68
69208;SHT31;70114;47.690;8.898;2024-03-06T01:48:21;6.21;85.47
69208;SHT31;70114;47.690;8.898;2024-03-06T01:50:48;6.17;85.57
69208;SHT31;70114;47.690;8.898;2024-03-06T01:53:15;6.18;85.76
69208;SHT31;70114;47.690;8.898;2024-03-06T01:55:42;6.20;85.60
69208;SHT31;70114;47.690;8.898;2024-03-06T01:58:08;6.16;85.57
69208;SHT31;70114;47.690;8.898;2024-03-06T02:00:34;6.18;85.82
69208;SHT31;70114;47.690;8.898;2024-03-06T02:03:00;6.11;85.95
69208;SHT31;70114;47.690;8.898;2024-03-06T02:05:28;6.18;85.77
69208;SHT31;70114;47.690;8.898;2024-03-06T02:07:53;6.17;85.87
69208;SHT31;70114;47.690;8.898;2024-03-06T02:10:19;6.20;85.62
69208;SHT31;70114;47.690;8.898;2024-03-06T02:12:44;6.21;85.46
69208;SHT31;70114;47.690;8.898;2024-03-06T02:15:10;6.25;85.40
69208;SHT31;70114;47.690;8.898;2024-03-06T02:17:37;6.24;85.27
69208;SHT31;70114;47.690;8.898;2024-03-06T02:20:03;6.14;85.41
69208;SHT31;70114;47.690;8.898;2024-03-06T02:22:32;6.13;85.59
69208;SHT31;70114;47.690;8.898;2024-03-06T02:24:57;6.17;85.52
69208;SHT31;70114;47.690;8.898;2024-03-06T02:27:23;6.24;85.30
69208;SHT31;70114;47.690;8.898;2024-03-06T02:29:48;6.14;85.60
69208;SHT31;70114;47.690;8.898;2024-03-06T02:32:14;6.11;85.51
69208;SHT31;70114;47.690;8.898;2024-03-06T02:34:40;6.13;85.49
69208;SHT31;70114;47.690;8.898;2024-03-06T02:37:06;6.17;85.43
69208;SHT31;70114;47.690;8.898;2024-03-06T02:39:31;6.18;85.58
69208;SHT31;70114;47.690;8.898;2024-03-06T02:41:57;6.13;85.52
69208;SHT31;70114;47.690;8.898;2024-03-06T02:44:22;6.13;85.52
69208;SHT31;70114;47.690;8.898;2024-03-06T02:46:48;6.17;85.42
69208;SHT31;70114;47.690;8.898;2024-03-06T02:49:15;6.09;85.82
69208;SHT31;70114;47.690;8.898;2024-03-06T02:51:41;6.06;85.56
69208;SHT31;70114;47.690;8.898;2024-03-06T02:54:06;6.11;85.62
69208;SHT31;70114;47.690;8.898;2024-03-06T02:56:31;6.10;85.70
69208;SHT31;70114;47.690;8.898;2024-03-06T02:58:57;6.17;85.38
69208;SHT31;70114;47.690;8.898;2024-03-06T03:01:22;6.07;85.88
69208;SHT31;70114;47.690;8.898;2024-03-06T03:03:48;6.03;85.95
69208;SHT31;70114;47.690;8.898;2024-03-06T03:06:14;6.00;86.04
69208;SHT31;70114;47.690;8.898;2024-03-06T03:08:39;6.04;86.12
69208;SHT31;70114;47.690;8.898;2024-03-06T03:11:05;6.03;86.25
69208;SHT31;70114;47.690;8.898;2024-03-06T03:13:30;6.03;86.25
69208;SHT31;70114;47.690;8.898;2024-03-06T03:15:56;5.95;86.36
69208;SHT31;70114;47.690;8.898;2024-03-06T03:18:21;6.03;86.25
69208;SHT31;70114;47.690;8.898;2024-03-06T03:20:47;6.06;86.10
69208;SHT31;70114;47.690;8.898;2024-03-06T03:23:12;6.07;86.14
69208;SHT31;70114;47.690;8.898;2024-03-06T03:25:40;6.11;85.90
69208;SHT31;70114;47.690;8.898;2024-03-06T03:28:06;6.04;85.87
69208;SHT31;70114;47.690;8.898;2024-03-06T03:30:32;6.14;85.95
69208;SHT31;70114;47.690;8.898;2024-03-06T03:32:57;5.86;87.46
69208;SHT31;70114;47.690;8.898;2024-03-06T03:35:23;5.95;86.56
69208;SHT31;70114;47.690;8.898;2024-03-06T03:37:53;5.92;86.52
69208;SHT31;70114;47.690;8.898;2024-03-06T03:40:20;5.87;86.52
69208;SHT31;70114;47.690;8.898;2024-03-06T03:42:46;5.86;86.67
69208;SHT31;70114;47.690;8.898;2024-03-06T03:45:13;5.92;86.51
69208;SHT31;70114;47.690;8.898;2024-03-06T03:47:38;6.03;86.27
69208;SHT31;70114;47.690;8.898;2024-03-06T03:50:04;5.99;86.26
69208;SHT31;70114;47.690;8.898;2024-03-06T03:52:29;5.95;86.24
69208;SHT31;70114;47.690;8.898;2024-03-06T03:54:55;5.90;86.35
69208;SHT31;70114;47.690;8.898;2024-03-06T03:57:20;5.93;86.51
69208;SHT31;70114;47.690;8.898;2024-03-06T03:59:46;5.93;86.32
69208;SHT31;70114;47.690;8.898;2024-03-06T04:02:11;5.99;86.23
69208;SHT31;70114;47.690;8.898;2024-03-06T04:04:36;5.86;86.12
69208;SHT31;70114;47.690;8.898;2024-03-06T04:07:02;5.83;86.39
69208;SHT31;70114;47.690;8.898;2024-03-06T04:09:27;5.86;86.38
69208;SHT31;70114;47.690;8.898;2024-03-06T04:11:53;5.80;86.61
69208;SHT31;70114;47.690;8.898;2024-03-06T04:14:18;5.73;86.53
69208;SHT31;70114;47.690;8.898;2024-03-06T04:16:45;5.76;86.76
69208;SHT31;70114;47.690;8.898;2024-03-06T04:19:11;5.66;86.81
69208;SHT31;70114;47.690;8.898;2024-03-06T04:21:43;5.59;86.96
69208;SHT31;70114;47.690;8.898;2024-03-06T04:24:09;5.63;86.75
69208;SHT31;70114;47.690;8.898;2024-03-06T04:26:34;5.54;87.05
69208;SHT31;70114;47.690;8.898;2024-03-06T04:29:00;5.47;87.26
69208;SHT31;70114;47.690;8.898;2024-03-06T04:31:25;5.59;87.00
69208;SHT31;70114;47.690;8.898;2024-03-06T04:33:51;5.60;86.94
69208;SHT31;70114;47.690;8.898;2024-03-06T04:36:16;5.58;86.92
69208;SHT31;70114;47.690;8.898;2024-03-06T04:38:42;5.59;87.01
69208;SHT31;70114;47.690;8.898;2024-03-06T04:41:08;5.62;86.76
69208;SHT31;70114;47.690;8.898;2024-03-06T04:43:33;5.54;87.20
69208;SHT31;70114;47.690;8.898;2024-03-06T04:45:59;5.65;86.68
69208;SHT31;70114;47.690;8.898;2024-03-06T04:48:24;5.66;86.55
69208;SHT31;70114;47.690;8.898;2024-03-06T04:50:50;5.75;86.47
69208;SHT31;70114;47.690;8.898;2024-03-06T04:53:16;5.69;86.34
69208;SHT31;70114;47.690;8.898;2024-03-06T04:55:41;5.58;86.38
69208;SHT31;70114;47.690;8.898;2024-03-06T04:58:07;5.59;86.69
69208;SHT31;70114;47.690;8.898;2024-03-06T05:00:32;5.60;86.46
69208;SHT31;70114;47.690;8.898;2024-03-06T05:02:57;5.59;86.34
69208;SHT31;70114;47.690;8.898;2024-03-06T05:05:24;5.62;86.29
69208;SHT31;70114;47.690;8.898;2024-03-06T05:07:50;5.66;86.27
69208;SHT31;70114;47.690;8.898;2024-03-06T05:10:15;5.65;86.46
69208;SHT31;70114;47.690;8.898;2024-03-06T05:12:43;5.60;86.23
69208;SHT31;70114;47.690;8.898;2024-03-06T05:15:10;5.59;86.42
69208;SHT31;70114;47.690;8.898;2024-03-06T05:17:35;5.56;86.42
69208;SHT31;70114;47.690;8.898;2024-03-06T05:20:01;5.68;86.14
69208;SHT31;70114;47.690;8.898;2024-03-06T05:22:29;5.60;86.15
69208;SHT31;70114;47.690;8.898;2024-03-06T05:24:55;5.58;86.25
69208;SHT31;70114;47.690;8.898;2024-03-06T05:27:21;5.30;86.70
69208;SHT31;70114;47.690;8.898;2024-03-06T05:29:46;5.42;86.69
69208;SHT31;70114;47.690;8.898;2024-03-06T05:32:12;5.51;86.50
69208;SHT31;70114;47.690;8.898;2024-03-06T05:34:37;5.39;86.55
69208;SHT31;70114;47.690;8.898;2024-03-06T05:37:03;5.34;86.70
69208;SHT31;70114;47.690;8.898;2024-03-06T05:39:30;5.35;86.79
69208;SHT31;70114;47.690;8.898;2024-03-06T05:42:00;5.45;86.57
69208;SHT31;70114;47.690;8.898;2024-03-06T05:44:25;5.39;86.74
69208;SHT31;70114;47.690;8.898;2024-03-06T05:46:51;5.21;86.87
69208;SHT31;70114;47.690;8.898;2024-03-06T05:49:17;5.30;86.74
69208;SHT31;70114;47.690;8.898;2024-03-06T05:51:42;5.28;87.04
69208;SHT31;70114;47.690;8.898;2024-03-06T05:54:07;5.31;86.77
69208;SHT31;70114;47.690;8.898;2024-03-06T05:56:35;5.24;86.58
69208;SHT31;70114;47.690;8.898;2024-03-06T05:59:00;5.24;86.68
69208;SHT31;70114;47.690;8.898;2024-03-06T06:01:30;5.35;86.71
69208;SHT31;70114;47.690;8.898;2024-03-06T06:03:56;5.44;86.54
69208;SHT31;70114;47.690;8.898;2024-03-06T06:06:21;5.47;86.41
69208;SHT31;70114;47.690;8.898;2024-03-06T06:08:46;5.51;86.36
69208;SHT31;70114;47.690;8.898;2024-03-06T06:11:12;5.56;86.19
69208;SHT31;70114;47.690;8.898;2024-03-06T06:13:38;5.58;85.72
69208;SHT31;70114;47.690;8.898;2024-03-06T06:16:06;5.56;85.22
69208;SHT31;70114;47.690;8.898;2024-03-06T06:18:32;5.59;85.56
69208;SHT31;70114;47.690;8.898;2024-03-06T06:20:58;5.59;84.98
69208;SHT31;70114;47.690;8.898;2024-03-06T06:23:24;5.58;85.11
69208;SHT31;70114;47.690;8.898;2024-03-06T06:25:50;5.63;85.29
69208;SHT31;70114;47.690;8.898;2024-03-06T06:28:15;5.52;85.15
69208;SHT31;70114;47.690;8.898;2024-03-06T06:30:40;5.51;85.43
69208;SHT31;70114;47.690;8.898;2024-03-06T06:33:06;5.52;85.23
69208;SHT31;70114;47.690;8.898;2024-03-06T06:35:32;5.51;85.02
69208;SHT31;70114;47.690;8.898;2024-03-06T06:38:00;5.48;85.11
69208;SHT31;70114;47.690;8.898;2024-03-06T06:40:25;5.48;85.02
69208;SHT31;70114;47.690;8.898;2024-03-06T06:42:50;5.45;85.17
69208;SHT31;70114;47.690;8.898;2024-03-06T06:45:16;5.48;85.08
69208;SHT31;70114;47.690;8.898;2024-03-06T06:47:43;5.39;85.47
69208;SHT31;70114;47.690;8.898;2024-03-06T06:50:09;5.27;85.74
69208;SHT31;70114;47.690;8.898;2024-03-06T06:52:35;5.26;86.19
69208;SHT31;70114;47.690;8.898;2024-03-06T06:55:01;5.30;86.18
69208;SHT31;70114;47.690;8.898;2024-03-06T06:57:27;5.27;86.19
69208;SHT31;70114;47.690;8.898;2024-03-06T06:59:52;5.27;86.35
69208;SHT31;70114;47.690;8.898;2024-03-06T07:02:18;5.24;86.74
69208;SHT31;70114;47.690;8.898;2024-03-06T07:04:43;5.24;86.52
69208;SHT31;70114;47.690;8.898;2024-03-06T07:07:09;5.31;86.67
69208;SHT31;70114;47.690;8.898;2024-03-06T07:09:34;5.35;86.43
69208;SHT31;70114;47.690;8.898;2024-03-06T07:12:00;5.24;87.16
69208;SHT31;70114;47.690;8.898;2024-03-06T07:14:25;5.32;86.63
69208;SHT31;70114;47.690;8.898;2024-03-06T07:16:50;5.38;86.06
69208;SHT31;70114;47.690;8.898;2024-03-06T07:19:16;5.28;86.06
69208;SHT31;70114;47.690;8.898;2024-03-06T07:21:42;5.24;85.77
69208;SHT31;70114;47.690;8.898;2024-03-06T07:24:07;5.26;85.56
69208;SHT31;70114;47.690;8.898;2024-03-06T07:26:33;5.26;85.77
69208;SHT31;70114;47.690;8.898;2024-03-06T07:28:59;5.31;85.55
69208;SHT31;70114;47.690;8.898;2024-03-06T07:31:25;5.24;85.51
69208;SHT31;70114;47.690;8.898;2024-03-06T07:33:51;5.26;85.87
69208;SHT31;70114;47.690;8.898;2024-03-06T07:36:16;5.07;85.77
69208;SHT31;70114;47.690;8.898;2024-03-06T07:38:43;5.14;86.18
69208;SHT31;70114;47.690;8.898;2024-03-06T07:41:08;5.23;86.04
69208;SHT31;70114;47.690;8.898;2024-03-06T07:43:34;5.20;85.96
69208;SHT31;70114;47.690;8.898;2024-03-06T07:45:59;5.20;86.00
69208;SHT31;70114;47.690;8.898;2024-03-06T07:48:24;5.23;85.76
69208;SHT31;70114;47.690;8.898;2024-03-06T07:50:50;5.11;86.52
69208;SHT31;70114;47.690;8.898;2024-03-06T07:53:15;4.97;87.42
69208;SHT31;70114;47.690;8.898;2024-03-06T07:55:41;5.11;86.63
69208;SHT31;70114;47.690;8.898;2024-03-06T07:58:07;5.13;86.47
69208;SHT31;70114;47.690;8.898;2024-03-06T08:00:33;5.16;86.54
69208;SHT31;70114;47.690;8.898;2024-03-06T08:02:59;5.13;86.52
69208;SHT31;70114;47.690;8.898;2024-03-06T08:05:26;5.18;86.54
69208;SHT31;70114;47.690;8.898;2024-03-06T08:07:51;5.20;86.86
69208;SHT31;70114;47.690;8.898;2024-03-06T08:10:17;5.27;86.74
69208;SHT31;70114;47.690;8.898;2024-03-06T08:12:44;5.32;86.41
69208;SHT31;70114;47.690;8.898;2024-03-06T08:15:12;5.38;86.34
69208;SHT31;70114;47.690;8.898;2024-03-06T08:17:39;5.31;86.59
69208;SHT31;70114;47.690;8.898;2024-03-06T08:20:05;5.38;86.74
69208;SHT31;70114;47.690;8.898;2024-03-06T08:22:42;5.28;86.92
69208;SHT31;70114;47.690;8.898;2024-03-06T08:25:08;5.34;86.97
69208;SHT31;70114;47.690;8.898;2024-03-06T08:27:35;5.27;87.31
69208;SHT31;70114;47.690;8.898;2024-03-06T08:30:02;5.34;87.10
69208;SHT31;70114;47.690;8.898;2024-03-06T08:32:30;5.34;87.10
69208;SHT31;70114;47.690;8.898;2024-03-06T08:34:55;5.37;87.27
69208;SHT31;70114;47.690;8.898;2024-03-06T08:37:21;5.51;87.28
69208;SHT31;70114;47.690;8.898;2024-03-06T08:39:46;5.59;87.28
69208;SHT31;70114;47.690;8.898;2024-03-06T08:42:13;5.59;87.12
69208;SHT31;70114;47.690;8.898;2024-03-06T08:44:41;5.51;86.92
69208;SHT31;70114;47.690;8.898;2024-03-06T08:47:07;5.58;87.00
69208;SHT31;70114;47.690;8.898;2024-03-06T08:49:32;5.58;87.20
69208;SHT31;70114;47.690;8.898;2024-03-06T08:51:58;5.68;86.92
69208;SHT31;70114;47.690;8.898;2024-03-06T08:54:24;5.54;86.77
69208;SHT31;70114;47.690;8.898;2024-03-06T08:56:49;5.56;86.63
69208;SHT31;70114;47.690;8.898;2024-03-06T08:59:18;5.58;86.78
69208;SHT31;70114;47.690;8.898;2024-03-06T09:01:44;5.62;86.72
69208;SHT31;70114;47.690;8.898;2024-03-06T09:04:09;5.72;86.90
69208;SHT31;70114;47.690;8.898;2024-03-06T09:06:34;5.75;86.67
69208;SHT31;70114;47.690;8.898;2024-03-06T09:09:00;5.65;86.72
69208;SHT31;70114;47.690;8.898;2024-03-06T09:11:25;5.77;85.90
69208;SHT31;70114;47.690;8.898;2024-03-06T09:13:50;5.92;86.29
69208;SHT31;70114;47.690;8.898;2024-03-06T09:16:16;5.90;86.04
69208;SHT31;70114;47.690;8.898;2024-03-06T09:18:42;5.87;85.66
69208;SHT31;70114;47.690;8.898;2024-03-06T09:21:08;5.92;86.11
69208;SHT31;70114;47.690;8.898;2024-03-06T09:23:33;5.90;86.63
69208;SHT31;70114;47.690;8.898;2024-03-06T09:25:59;5.86;86.85
69208;SHT31;70114;47.690;8.898;2024-03-06T09:28:24;5.90;86.96
69208;SHT31;70114;47.690;8.898;2024-03-06T09:30:50;5.95;86.73
69208;SHT31;70114;47.690;8.898;2024-03-06T09:33:16;5.87;87.02
69208;SHT31;70114;47.690;8.898;2024-03-06T09:35:41;5.89;87.13
69208;SHT31;70114;47.690;8.898;2024-03-06T09:38:11;6.00;86.68
69208;SHT31;70114;47.690;8.898;2024-03-06T09:40:38;5.93;86.70
69208;SHT31;70114;47.690;8.898;2024-03-06T09:43:05;5.89;86.86
69208;SHT31;70114;47.690;8.898;2024-03-06T09:45:32;5.89;86.61
69208;SHT31;70114;47.690;8.898;2024-03-06T09:47:57;5.85;86.54
69208;SHT31;70114;47.690;8.898;2024-03-06T09:50:23;5.86;87.07
69208;SHT31;70114;47.690;8.898;2024-03-06T09:52:52;5.89;86.75
69208;SHT31;70114;47.690;8.898;2024-03-06T09:55:19;5.87;87.01
69208;SHT31;70114;47.690;8.898;2024-03-06T09:57:45;5.95;86.41
69208;SHT31;70114;47.690;8.898;2024-03-06T10:00:10;5.96;86.59
69208;SHT31;70114;47.690;8.898;2024-03-06T10:02:59;5.89;86.60
69208;SHT31;70114;47.690;8.898;2024-03-06T10:05:25;5.82;86.60
69208;SHT31;70114;47.690;8.898;2024-03-06T10:07:52;5.82;86.52
69208;SHT31;70114;47.690;8.898;2024-03-06T10:10:21;5.85;86.94
69208;SHT31;70114;47.690;8.898;2024-03-06T10:12:48;5.92;86.98
69208;SHT31;70114;47.690;8.898;2024-03-06T10:15:14;5.90;86.99
69208;SHT31;70114;47.690;8.898;2024-03-06T10:17:40;5.87;86.82
69208;SHT31;70114;47.690;8.898;2024-03-06T10:20:19;5.83;87.12
69208;SHT31;70114;47.690;8.898;2024-03-06T10:22:54;5.93;87.05
69208;SHT31;70114;47.690;8.898;2024-03-06T10:25:23;5.86;87.20
69208;SHT31;70114;47.690;8.898;2024-03-06T10:28:06;5.75;87.62
69208;SHT31;70114;47.690;8.898;2024-03-06T10:30:33;5.70;87.86
69208;SHT31;70114;47.690;8.898;2024-03-06T10:33:01;5.73;87.79
69208;SHT31;70114;47.690;8.898;2024-03-06T10:35:26;5.76;88.25
69208;SHT31;70114;47.690;8.898;2024-03-06T10:37:54;5.79;87.85
69208;SHT31;70114;47.690;8.898;2024-03-06T10:40:20;5.80;88.12
69208;SHT31;70114;47.690;8.898;2024-03-06T10:42:46;5.90;87.55
69208;SHT31;70114;47.690;8.898;2024-03-06T10:45:15;5.92;87.91
69208;SHT31;70114;47.690;8.898;2024-03-06T10:47:46;6.00;87.73
69208;SHT31;70114;47.690;8.898;2024-03-06T10:50:15;5.93;87.56
69208;SHT31;70114;47.690;8.898;2024-03-06T10:52:40;6.04;87.45
69208;SHT31;70114;47.690;8.898;2024-03-06T10:55:07;6.10;87.50
69208;SHT31;70114;47.690;8.898;2024-03-06T10:57:36;6.00;87.11
69208;SHT31;70114;47.690;8.898;2024-03-06T11:00:02;6.07;87.11
69208;SHT31;70114;47.690;8.898;2024-03-06T11:02:27;6.09;86.66
69208;SHT31;70114;47.690;8.898;2024-03-06T11:04:53;5.90;87.13
69208;SHT31;70114;47.690;8.898;2024-03-06T11:07:19;5.87;87.05
69208;SHT31;70114;47.690;8.898;2024-03-06T11:09:45;5.87;87.73
69208;SHT31;70114;47.690;8.898;2024-03-06T11:12:32;5.92;87.74
69208;SHT31;70114;47.690;8.898;2024-03-06T11:14:57;5.97;87.47
69208;SHT31;70114;47.690;8.898;2024-03-06T11:17:25;6.11;87.45
69208;SHT31;70114;47.690;8.898;2024-03-06T11:20:17;5.97;87.24
69208;SHT31;70114;47.690;8.898;2024-03-06T11:28:28;6.13;87.77
69208;SHT31;70114;47.690;8.898;2024-03-06T11:33:19;6.25;87.55
69208;SHT31;70114;47.690;8.898;2024-03-06T11:36:16;6.30;87.67
69208;SHT31;70114;47.690;8.898;2024-03-06T11:44:01;6.33;87.03
69208;SHT31;70114;47.690;8.898;2024-03-06T11:49:20;6.24;87.29
69208;SHT31;70114;47.690;8.898;2024-03-06T11:51:46;6.21;87.30
69208;SHT31;70114;47.690;8.898;2024-03-06T11:54:12;6.27;87.33
69208;SHT31;70114;47.690;8.898;2024-03-06T11:56:39;6.23;87.78
69208;SHT31;70114;47.690;8.898;2024-03-06T11:59:04;6.28;86.77
69208;SHT31;70114;47.690;8.898;2024-03-06T12:01:31;6.31;87.33
69208;SHT31;70114;47.690;8.898;2024-03-06T12:03:57;6.30;87.39
69208;SHT31;70114;47.690;8.898;2024-03-06T12:06:23;6.31;87.61
69208;SHT31;70114;47.690;8.898;2024-03-06T12:08:48;6.40;87.07
69208;SHT31;70114;47.690;8.898;2024-03-06T12:11:13;6.49;86.87
69208;SHT31;70114;47.690;8.898;2024-03-06T12:13:41;6.45;86.54
69208;SHT31;70114;47.690;8.898;2024-03-06T12:16:07;6.35;86.57
69208;SHT31;70114;47.690;8.898;2024-03-06T12:18:33;6.41;86.56
69208;SHT31;70114;47.690;8.898;2024-03-06T12:21:00;6.34;86.16
69208;SHT31;70114;47.690;8.898;2024-03-06T12:23:28;6.25;86.96
69208;SHT31;70114;47.690;8.898;2024-03-06T12:26:06;6.30;87.67
69208;SHT31;70114;47.690;8.898;2024-03-06T12:28:34;6.34;87.84
69208;SHT31;70114;47.690;8.898;2024-03-06T12:31:02;6.30;86.54
69208;SHT31;70114;47.690;8.898;2024-03-06T12:33:28;6.30;87.60
69208;SHT31;70114;47.690;8.898;2024-03-06T12:36:04;6.35;87.11
69208;SHT31;70114;47.690;8.898;2024-03-06T12:38:30;6.21;87.74
69208;SHT31;70114;47.690;8.898;2024-03-06T12:40:56;6.41;87.16
69208;SHT31;70114;47.690;8.898;2024-03-06T12:43:21;6.31;86.85
69208;SHT31;70114;47.690;8.898;2024-03-06T12:45:47;6.33;86.87
69208;SHT31;70114;47.690;8.898;2024-03-06T12:48:12;6.35;86.95
69208;SHT31;70114;47.690;8.898;2024-03-06T12:50:38;6.33;86.83
69208;SHT31;70114;47.690;8.898;2024-03-06T12:53:03;6.38;87.10
69208;SHT31;70114;47.690;8.898;2024-03-06T12:55:30;6.42;87.08
69208;SHT31;70114;47.690;8.898;2024-03-06T12:57:57;6.40;87.41
69208;SHT31;70114;47.690;8.898;2024-03-06T13:00:22;6.35;87.50
69208;SHT31;70114;47.690;8.898;2024-03-06T13:02:49;6.42;87.88
69208;SHT31;70114;47.690;8.898;2024-03-06T13:05:15;6.46;86.66
69208;SHT31;70114;47.690;8.898;2024-03-06T13:07:44;6.61;86.80
69208;SHT31;70114;47.690;8.898;2024-03-06T13:10:10;6.58;87.30
69208;SHT31;70114;47.690;8.898;2024-03-06T13:12:39;6.38;86.60
69208;SHT31;70114;47.690;8.898;2024-03-06T13:15:05;6.52;87.62
69208;SHT31;70114;47.690;8.898;2024-03-06T13:17:32;6.42;88.05
69208;SHT31;70114;47.690;8.898;2024-03-06T13:19:58;6.51;87.53
69208;SHT31;70114;47.690;8.898;2024-03-06T13:22:23;6.52;85.36
69208;SHT31;70114;47.690;8.898;2024-03-06T13:24:48;6.61;85.66
69208;SHT31;70114;47.690;8.898;2024-03-06T13:27:14;6.48;86.44
69208;SHT31;70114;47.690;8.898;2024-03-06T13:29:39;6.56;86.49
69208;SHT31;70114;47.690;8.898;2024-03-06T13:32:08;6.42;86.20
69208;SHT31;70114;47.690;8.898;2024-03-06T13:34:33;6.31;84.85
69208;SHT31;70114;47.690;8.898;2024-03-06T13:36:59;6.38;86.78
69208;SHT31;70114;47.690;8.898;2024-03-06T13:39:25;6.41;86.04
69208;SHT31;70114;47.690;8.898;2024-03-06T13:41:50;6.35;85.36
69208;SHT31;70114;47.690;8.898;2024-03-06T13:44:17;6.45;86.05
69208;SHT31;70114;47.690;8.898;2024-03-06T13:46:43;6.41;86.41
69208;SHT31;70114;47.690;8.898;2024-03-06T13:49:34;6.49;85.88
69208;SHT31;70114;47.690;8.898;2024-03-06T13:51:59;6.61;86.17
69208;SHT31;70114;47.690;8.898;2024-03-06T13:54:25;6.62;85.63
69208;SHT31;70114;47.690;8.898;2024-03-06T13:56:50;6.58;86.13
69208;SHT31;70114;47.690;8.898;2024-03-06T13:59:16;6.51;85.66
69208;SHT31;70114;47.690;8.898;2024-03-06T14:01:42;6.38;85.51
69208;SHT31;70114;47.690;8.898;2024-03-06T14:04:08;6.34;86.17
69208;SHT31;70114;47.690;8.898;2024-03-06T14:06:33;6.44;85.91
69208;SHT31;70114;47.690;8.898;2024-03-06T14:08:59;6.38;85.51
69208;SHT31;70114;47.690;8.898;2024-03-06T14:11:24;6.40;85.26
69208;SHT31;70114;47.690;8.898;2024-03-06T14:13:50;6.46;85.05
69208;SHT31;70114;47.690;8.898;2024-03-06T14:16:16;6.49;84.98
69208;SHT31;70114;47.690;8.898;2024-03-06T14:18:41;6.51;84.73
69208;SHT31;70114;47.690;8.898;2024-03-06T14:21:07;6.37;83.64
69208;SHT31;70114;47.690;8.898;2024-03-06T14:23:32;6.41;84.84
69208;SHT31;70114;47.690;8.898;2024-03-06T14:25:57;6.42;84.29
69208;SHT31;70114;47.690;8.898;2024-03-06T14:28:23;6.45;84.39
69208;SHT31;70114;47.690;8.898;2024-03-06T14:30:48;6.44;83.70
69208;SHT31;70114;47.690;8.898;2024-03-06T14:33:14;6.38;84.38
69208;SHT31;70114;47.690;8.898;2024-03-06T14:35:39;6.42;84.70
69208;SHT31;70114;47.690;8.898;2024-03-06T14:38:04;6.45;85.45
69208;SHT31;70114;47.690;8.898;2024-03-06T14:40:30;6.45;85.78
69208;SHT31;70114;47.690;8.898;2024-03-06T14:42:56;6.38;85.78
69208;SHT31;70114;47.690;8.898;2024-03-06T14:45:21;6.28;84.40
69208;SHT31;70114;47.690;8.898;2024-03-06T14:47:46;6.10;85.43
69208;SHT31;70114;47.690;8.898;2024-03-06T14:50:12;6.13;85.05
69208;SHT31;70114;47.690;8.898;2024-03-06T14:52:37;6.20;85.18
69208;SHT31;70114;47.690;8.898;2024-03-06T14:55:03;6.27;84.91
69208;SHT31;70114;47.690;8.898;2024-03-06T14:57:29;6.30;84.45
69208;SHT31;70114;47.690;8.898;2024-03-06T14:59:55;6.27;84.63
69208;SHT31;70114;47.690;8.898;2024-03-06T15:02:20;6.23;84.41
69208;SHT31;70114;47.690;8.898;2024-03-06T15:04:46;6.24;84.69
69208;SHT31;70114;47.690;8.898;2024-03-06T15:07:12;6.30;85.29
69208;SHT31;70114;47.690;8.898;2024-03-06T15:09:37;6.18;84.08
69208;SHT31;70114;47.690;8.898;2024-03-06T15:12:03;6.11;84.18
69208;SHT31;70114;47.690;8.898;2024-03-06T15:14:29;6.11;84.27
69208;SHT31;70114;47.690;8.898;2024-03-06T15:16:56;6.14;84.59
69208;SHT31;70114;47.690;8.898;2024-03-06T15:19:21;6.04;84.53
69208;SHT31;70114;47.690;8.898;2024-03-06T15:21:47;5.97;84.88
69208;SHT31;70114;47.690;8.898;2024-03-06T15:24:12;6.10;85.03
69208;SHT31;70114;47.690;8.898;2024-03-06T15:26:38;6.03;85.03
69208;SHT31;70114;47.690;8.898;2024-03-06T15:29:03;6.07;85.20
69208;SHT31;70114;47.690;8.898;2024-03-06T15:31:30;5.97;85.03
69208;SHT31;70114;47.690;8.898;2024-03-06T15:33:55;5.97;84.97
69208;SHT31;70114;47.690;8.898;2024-03-06T15:36:20;5.77;85.26
69208;SHT31;70114;47.690;8.898;2024-03-06T15:38:46;5.89;84.82
69208;SHT31;70114;47.690;8.898;2024-03-06T15:41:12;5.86;85.46
69208;SHT31;70114;47.690;8.898;2024-03-06T15:43:37;5.77;85.16
69208;SHT31;70114;47.690;8.898;2024-03-06T15:46:03;5.83;85.38
69208;SHT31;70114;47.690;8.898;2024-03-06T15:48:28;5.87;84.90
69208;SHT31;70114;47.690;8.898;2024-03-06T15:50:55;5.69;85.33
69208;SHT31;70114;47.690;8.898;2024-03-06T15:53:21;5.79;85.46
69208;SHT31;70114;47.690;8.898;2024-03-06T15:55:46;5.86;85.71